sensor_id;sensor_type;location;lat;lon;timestamp;temperature;humidity
7598;DHT22;3840;59.32098800;18.06423600;2023-08-20T00:02:04;16.60;99.90
7598;DHT22;3840;59.32098800;18.06423600;2023-08-20T00:04:35;16.70;99.90
7598;DHT22;3840;59.32098800;18.06423600;2023-08-20T00:07:01;16.60;99.90
7598;DHT22;3840;59.32098800;18.06423600;2023-08-20T00:09:28;16.60;99.90
7598;DHT22;3840;59.32098800;18.06423600;2023-08-20T00:11:54;16.50;99.90
7598;DHT22;3840;59.32098800;18.06423600;2023-08-20T00:14:52;16.60;99.90
7598;DHT22;3840;59.32098800;18.06423600;2023-08-20T00:17:19;16.60;99.90
7598;DHT22;3840;59.32098800;18.06423600;2023-08-20T00:19:45;16.50;99.90
7598;DHT22;3840;59.32098800;18.06423600;2023-08-20T00:22:11;16.50;99.90
7598;DHT22;3840;59.32098800;18.06423600;2023-08-20T00:24:37;16.50;99.90
7598;DHT22;3840;59.32098800;18.06423600;2023-08-20T00:27:03;16.50;99.90
7598;DHT22;3840;59.32098800;18.06423600;2023-08-20T00:29:29;16.50;99.90
7598;DHT22;3840;59.32098800;18.06423600;2023-08-20T00:31:55;16.50;99.90
7598;DHT22;3840;59.32098800;18.06423600;2023-08-20T00:34:20;16.50;99.90
7598;DHT22;3840;59.32098800;18.06423600;2023-08-20T00:36:47;16.50;99.90
7598;DHT22;3840;59.32098800;18.06423600;2023-08-20T00:39:13;16.50;99.90
7598;DHT22;3840;59.32098800;18.06423600;2023-08-20T00:41:40;16.50;99.90
7598;DHT22;3840;59.32098800;18.06423600;2023-08-20T00:44:06;16.50;99.90
7598;DHT22;3840;59.32098800;18.06423600;2023-08-20T00:46:32;16.50;99.90
7598;DHT22;3840;59.32098800;18.06423600;2023-08-20T00:48:58;16.50;99.90
7598;DHT22;3840;59.32098800;18.06423600;2023-08-20T00:51:24;16.60;99.90
7598;DHT22;3840;59.32098800;18.06423600;2023-08-20T00:53:50;16.60;99.90
7598;DHT22;3840;59.32098800;18.06423600;2023-08-20T00:56:17;16.60;99.90
7598;DHT22;3840;59.32098800;18.06423600;2023-08-20T00:58:43;16.50;99.90
7598;DHT22;3840;59.32098800;18.06423600;2023-08-20T01:01:10;16.50;99.90
7598;DHT22;3840;59.32098800;18.06423600;2023-08-20T01:03:36;16.50;99.90
7598;DHT22;3840;59.32098800;18.06423600;2023-08-20T01:11:55;16.40;99.90
7598;DHT22;3840;59.32098800;18.06423600;2023-08-20T01:14:22;16.40;99.90
7598;DHT22;3840;59.32098800;18.06423600;2023-08-20T01:16:48;16.40;99.90
7598;DHT22;3840;59.32098800;18.06423600;2023-08-20T01:19:19;16.40;99.90
7598;DHT22;3840;59.32098800;18.06423600;2023-08-20T01:24:56;16.40;99.90
7598;DHT22;3840;59.32098800;18.06423600;2023-08-20T01:30:25;16.30;99.90
7598;DHT22;3840;59.32098800;18.06423600;2023-08-20T01:32:52;16.30;99.90
7598;DHT22;3840;59.32098800;18.06423600;2023-08-20T01:35:19;16.20;99.90
7598;DHT22;3840;59.32098800;18.06423600;2023-08-20T01:37:45;16.20;99.90
7598;DHT22;3840;59.32098800;18.06423600;2023-08-20T01:40:11;16.20;99.90
7598;DHT22;3840;59.32098800;18.06423600;2023-08-20T01:42:37;16.20;99.90
7598;DHT22;3840;59.32098800;18.06423600;2023-08-20T01:45:04;16.20;99.90
7598;DHT22;3840;59.32098800;18.06423600;2023-08-20T01:47:31;16.10;99.90
7598;DHT22;3840;59.32098800;18.06423600;2023-08-20T01:49:57;16.10;99.90
7598;DHT22;3840;59.32098800;18.06423600;2023-08-20T01:52:24;16.10;99.90
7598;DHT22;3840;59.32098800;18.06423600;2023-08-20T01:54:50;16.10;99.90
7598;DHT22;3840;59.32098800;18.06423600;2023-08-20T01:57:15;16.10;99.90
7598;DHT22;3840;59.32098800;18.06423600;2023-08-20T01:59:42;16.10;99.90
7598;DHT22;3840;59.32098800;18.06423600;2023-08-20T02:02:08;16.10;99.90
7598;DHT22;3840;59.32098800;18.06423600;2023-08-20T02:04:36;16.00;99.90
7598;DHT22;3840;59.32098800;18.06423600;2023-08-20T02:07:02;16.10;99.90
7598;DHT22;3840;59.32098800;18.06423600;2023-08-20T02:09:28;16.00;99.90
7598;DHT22;3840;59.32098800;18.06423600;2023-08-20T02:11:53;16.00;99.90
7598;DHT22;3840;59.32098800;18.06423600;2023-08-20T02:14:19;16.00;99.90
7598;DHT22;3840;59.32098800;18.06423600;2023-08-20T02:16:47;16.00;99.90
7598;DHT22;3840;59.32098800;18.06423600;2023-08-20T02:19:13;16.00;99.90
7598;DHT22;3840;59.32098800;18.06423600;2023-08-20T02:21:40;15.90;99.90
7598;DHT22;3840;59.32098800;18.06423600;2023-08-20T02:24:06;15.90;99.90
7598;DHT22;3840;59.32098800;18.06423600;2023-08-20T02:26:32;15.90;99.90
7598;DHT22;3840;59.32098800;18.06423600;2023-08-20T02:28:58;15.90;99.90
7598;DHT22;3840;59.32098800;18.06423600;2023-08-20T02:31:24;15.90;99.90
7598;DHT22;3840;59.32098800;18.06423600;2023-08-20T02:33:50;16.00;99.90
7598;DHT22;3840;59.32098800;18.06423600;2023-08-20T02:36:15;16.00;99.90
7598;DHT22;3840;59.32098800;18.06423600;2023-08-20T02:38:41;16.00;99.90
7598;DHT22;3840;59.32098800;18.06423600;2023-08-20T02:41:07;15.90;99.90
7598;DHT22;3840;59.32098800;18.06423600;2023-08-20T02:43:33;15.90;99.90
7598;DHT22;3840;59.32098800;18.06423600;2023-08-20T02:45:58;16.00;99.90
7598;DHT22;3840;59.32098800;18.06423600;2023-08-20T02:48:24;16.00;99.90
7598;DHT22;3840;59.32098800;18.06423600;2023-08-20T02:50:54;16.00;99.90
7598;DHT22;3840;59.32098800;18.06423600;2023-08-20T02:53:20;16.00;99.90
7598;DHT22;3840;59.32098800;18.06423600;2023-08-20T02:55:46;16.00;99.90
7598;DHT22;3840;59.32098800;18.06423600;2023-08-20T02:58:12;16.00;99.90
7598;DHT22;3840;59.32098800;18.06423600;2023-08-20T03:00:38;16.00;99.90
7598;DHT22;3840;59.32098800;18.06423600;2023-08-20T03:03:04;16.00;99.90
7598;DHT22;3840;59.32098800;18.06423600;2023-08-20T03:05:33;16.00;99.90
7598;DHT22;3840;59.32098800;18.06423600;2023-08-20T03:07:59;16.00;99.90
7598;DHT22;3840;59.32098800;18.06423600;2023-08-20T03:10:27;16.00;99.90
7598;DHT22;3840;59.32098800;18.06423600;2023-08-20T03:12:53;16.00;99.90
7598;DHT22;3840;59.32098800;18.06423600;2023-08-20T03:15:18;16.00;99.90
7598;DHT22;3840;59.32098800;18.06423600;2023-08-20T03:17:44;16.00;99.90
7598;DHT22;3840;59.32098800;18.06423600;2023-08-20T03:20:10;16.00;99.90
7598;DHT22;3840;59.32098800;18.06423600;2023-08-20T03:22:37;16.00;99.90
7598;DHT22;3840;59.32098800;18.06423600;2023-08-20T03:25:04;16.00;99.90
7598;DHT22;3840;59.32098800;18.06423600;2023-08-20T03:27:31;16.00;99.90
7598;DHT22;3840;59.32098800;18.06423600;2023-08-20T03:29:57;16.00;99.90
7598;DHT22;3840;59.32098800;18.06423600;2023-08-20T03:32:23;16.10;99.90
7598;DHT22;3840;59.32098800;18.06423600;2023-08-20T03:34:49;16.10;99.90
7598;DHT22;3840;59.32098800;18.06423600;2023-08-20T03:37:15;16.10;99.90
7598;DHT22;3840;59.32098800;18.06423600;2023-08-20T03:39:41;16.10;99.90
7598;DHT22;3840;59.32098800;18.06423600;2023-08-20T03:42:07;16.10;99.90
7598;DHT22;3840;59.32098800;18.06423600;2023-08-20T03:44:33;16.10;99.90
7598;DHT22;3840;59.32098800;18.06423600;2023-08-20T03:46:59;16.10;99.90
7598;DHT22;3840;59.32098800;18.06423600;2023-08-20T03:49:25;16.10;99.90
7598;DHT22;3840;59.32098800;18.06423600;2023-08-20T03:51:50;16.10;99.90
7598;DHT22;3840;59.32098800;18.06423600;2023-08-20T03:54:17;16.10;99.90
7598;DHT22;3840;59.32098800;18.06423600;2023-08-20T03:56:42;16.10;99.90
7598;DHT22;3840;59.32098800;18.06423600;2023-08-20T03:59:08;16.10;99.90
7598;DHT22;3840;59.32098800;18.06423600;2023-08-20T04:01:35;16.20;99.90
7598;DHT22;3840;59.32098800;18.06423600;2023-08-20T04:04:05;16.20;99.90
7598;DHT22;3840;59.32098800;18.06423600;2023-08-20T04:06:31;16.10;99.90
7598;DHT22;3840;59.32098800;18.06423600;2023-08-20T04:08:57;16.20;99.90
7598;DHT22;3840;59.32098800;18.06423600;2023-08-20T04:11:23;16.20;99.90
7598;DHT22;3840;59.32098800;18.06423600;2023-08-20T04:13:49;16.10;99.90
7598;DHT22;3840;59.32098800;18.06423600;2023-08-20T04:16:14;16.10;99.90
7598;DHT22;3840;59.32098800;18.06423600;2023-08-20T04:18:40;16.20;99.90
7598;DHT22;3840;59.32098800;18.06423600;2023-08-20T04:21:06;16.20;99.90
7598;DHT22;3840;59.32098800;18.06423600;2023-08-20T04:23:35;16.20;99.90
7598;DHT22;3840;59.32098800;18.06423600;2023-08-20T04:26:01;16.40;99.90
7598;DHT22;3840;59.32098800;18.06423600;2023-08-20T04:28:26;16.20;99.90
7598;DHT22;3840;59.32098800;18.06423600;2023-08-20T04:30:53;16.20;99.90
7598;DHT22;3840;59.32098800;18.06423600;2023-08-20T04:33:20;16.20;99.90
7598;DHT22;3840;59.32098800;18.06423600;2023-08-20T04:35:48;16.20;99.90
7598;DHT22;3840;59.32098800;18.06423600;2023-08-20T04:38:20;16.20;99.90
7598;DHT22;3840;59.32098800;18.06423600;2023-08-20T04:40:47;16.10;99.90
7598;DHT22;3840;59.32098800;18.06423600;2023-08-20T04:43:13;16.20;99.90
7598;DHT22;3840;59.32098800;18.06423600;2023-08-20T04:45:40;16.20;99.90
7598;DHT22;3840;59.32098800;18.06423600;2023-08-20T04:48:06;16.20;99.90
7598;DHT22;3840;59.32098800;18.06423600;2023-08-20T04:50:32;16.20;99.90
7598;DHT22;3840;59.32098800;18.06423600;2023-08-20T04:52:58;16.20;99.90
7598;DHT22;3840;59.32098800;18.06423600;2023-08-20T04:55:27;16.10;99.90
7598;DHT22;3840;59.32098800;18.06423600;2023-08-20T04:57:53;16.10;99.90
7598;DHT22;3840;59.32098800;18.06423600;2023-08-20T05:00:19;16.20;99.90
7598;DHT22;3840;59.32098800;18.06423600;2023-08-20T05:02:46;16.20;99.90
7598;DHT22;3840;59.32098800;18.06423600;2023-08-20T05:05:11;16.30;99.90
7598;DHT22;3840;59.32098800;18.06423600;2023-08-20T05:07:37;16.30;99.90
7598;DHT22;3840;59.32098800;18.06423600;2023-08-20T05:10:04;16.30;99.90
7598;DHT22;3840;59.32098800;18.06423600;2023-08-20T05:12:29;16.30;99.90
7598;DHT22;3840;59.32098800;18.06423600;2023-08-20T05:14:55;16.40;99.90
7598;DHT22;3840;59.32098800;18.06423600;2023-08-20T05:17:21;16.40;99.90
7598;DHT22;3840;59.32098800;18.06423600;2023-08-20T05:19:48;16.40;99.90
7598;DHT22;3840;59.32098800;18.06423600;2023-08-20T05:22:14;16.40;99.90
7598;DHT22;3840;59.32098800;18.06423600;2023-08-20T05:24:39;16.40;99.90
7598;DHT22;3840;59.32098800;18.06423600;2023-08-20T05:27:11;16.50;99.90
7598;DHT22;3840;59.32098800;18.06423600;2023-08-20T05:29:39;16.50;99.90
7598;DHT22;3840;59.32098800;18.06423600;2023-08-20T05:32:08;16.40;99.90
7598;DHT22;3840;59.32098800;18.06423600;2023-08-20T05:34:35;16.50;99.90
7598;DHT22;3840;59.32098800;18.06423600;2023-08-20T05:37:02;16.40;99.90
7598;DHT22;3840;59.32098800;18.06423600;2023-08-20T05:39:30;16.40;99.90
7598;DHT22;3840;59.32098800;18.06423600;2023-08-20T05:42:02;16.40;99.90
7598;DHT22;3840;59.32098800;18.06423600;2023-08-20T05:44:27;16.40;99.90
7598;DHT22;3840;59.32098800;18.06423600;2023-08-20T05:46:53;16.50;99.90
7598;DHT22;3840;59.32098800;18.06423600;2023-08-20T05:49:19;16.50;99.90
7598;DHT22;3840;59.32098800;18.06423600;2023-08-20T05:51:45;16.60;99.90
7598;DHT22;3840;59.32098800;18.06423600;2023-08-20T05:54:11;16.60;99.90
7598;DHT22;3840;59.32098800;18.06423600;2023-08-20T05:56:37;16.60;99.90
7598;DHT22;3840;59.32098800;18.06423600;2023-08-20T05:59:03;16.60;99.90
7598;DHT22;3840;59.32098800;18.06423600;2023-08-20T06:01:31;16.60;99.90
7598;DHT22;3840;59.32098800;18.06423600;2023-08-20T06:03:57;16.60;99.90
7598;DHT22;3840;59.32098800;18.06423600;2023-08-20T06:06:22;16.60;99.90
7598;DHT22;3840;59.32098800;18.06423600;2023-08-20T06:08:49;16.70;99.90
7598;DHT22;3840;59.32098800;18.06423600;2023-08-20T06:11:15;16.70;99.90
7598;DHT22;3840;59.32098800;18.06423600;2023-08-20T06:13:41;16.70;99.90
7598;DHT22;3840;59.32098800;18.06423600;2023-08-20T06:16:07;16.70;99.90
7598;DHT22;3840;59.32098800;18.06423600;2023-08-20T06:18:33;16.80;99.90
7598;DHT22;3840;59.32098800;18.06423600;2023-08-20T06:20:59;16.80;99.90
7598;DHT22;3840;59.32098800;18.06423600;2023-08-20T06:23:24;16.80;99.90
7598;DHT22;3840;59.32098800;18.06423600;2023-08-20T06:25:50;16.90;99.90
7598;DHT22;3840;59.32098800;18.06423600;2023-08-20T06:28:17;16.80;99.90
7598;DHT22;3840;59.32098800;18.06423600;2023-08-20T06:30:45;16.90;99.90
7598;DHT22;3840;59.32098800;18.06423600;2023-08-20T06:33:11;17.00;99.90
7598;DHT22;3840;59.32098800;18.06423600;2023-08-20T06:35:37;17.00;99.90
7598;DHT22;3840;59.32098800;18.06423600;2023-08-20T06:38:03;17.10;99.90
7598;DHT22;3840;59.32098800;18.06423600;2023-08-20T06:40:30;17.10;99.90
7598;DHT22;3840;59.32098800;18.06423600;2023-08-20T06:42:56;17.20;99.90
7598;DHT22;3840;59.32098800;18.06423600;2023-08-20T06:45:22;17.20;99.90
7598;DHT22;3840;59.32098800;18.06423600;2023-08-20T06:47:48;17.60;99.90
7598;DHT22;3840;59.32098800;18.06423600;2023-08-20T06:50:14;17.30;99.90
7598;DHT22;3840;59.32098800;18.06423600;2023-08-20T06:52:39;17.30;99.90
7598;DHT22;3840;59.32098800;18.06423600;2023-08-20T06:55:05;17.30;99.90
7598;DHT22;3840;59.32098800;18.06423600;2023-08-20T06:57:33;17.30;99.90
7598;DHT22;3840;59.32098800;18.06423600;2023-08-20T06:59:58;17.20;99.90
7598;DHT22;3840;59.32098800;18.06423600;2023-08-20T07:02:24;17.20;99.90
7598;DHT22;3840;59.32098800;18.06423600;2023-08-20T07:04:51;17.30;99.90
7598;DHT22;3840;59.32098800;18.06423600;2023-08-20T07:07:17;17.20;99.90
7598;DHT22;3840;59.32098800;18.06423600;2023-08-20T07:09:43;17.30;99.90
7598;DHT22;3840;59.32098800;18.06423600;2023-08-20T07:12:09;17.40;99.90
7598;DHT22;3840;59.32098800;18.06423600;2023-08-20T07:14:34;17.50;99.90
7598;DHT22;3840;59.32098800;18.06423600;2023-08-20T07:17:00;17.50;99.90
7598;DHT22;3840;59.32098800;18.06423600;2023-08-20T07:19:28;17.60;99.90
7598;DHT22;3840;59.32098800;18.06423600;2023-08-20T07:21:54;17.50;99.90
7598;DHT22;3840;59.32098800;18.06423600;2023-08-20T07:24:21;17.60;99.90
7598;DHT22;3840;59.32098800;18.06423600;2023-08-20T07:26:51;17.70;99.90
7598;DHT22;3840;59.32098800;18.06423600;2023-08-20T07:29:18;17.70;99.90
7598;DHT22;3840;59.32098800;18.06423600;2023-08-20T07:31:43;17.60;99.90
7598;DHT22;3840;59.32098800;18.06423600;2023-08-20T07:34:09;17.60;99.90
7598;DHT22;3840;59.32098800;18.06423600;2023-08-20T07:36:35;17.60;99.90
7598;DHT22;3840;59.32098800;18.06423600;2023-08-20T07:39:02;17.60;99.90
7598;DHT22;3840;59.32098800;18.06423600;2023-08-20T07:41:28;17.70;99.90
7598;DHT22;3840;59.32098800;18.06423600;2023-08-20T07:43:54;17.60;99.90
7598;DHT22;3840;59.32098800;18.06423600;2023-08-20T07:46:20;17.60;99.90
7598;DHT22;3840;59.32098800;18.06423600;2023-08-20T07:48:46;17.70;99.90
7598;DHT22;3840;59.32098800;18.06423600;2023-08-20T07:51:11;17.80;99.90
7598;DHT22;3840;59.32098800;18.06423600;2023-08-20T07:53:37;17.80;99.90
7598;DHT22;3840;59.32098800;18.06423600;2023-08-20T07:56:03;17.80;99.90
7598;DHT22;3840;59.32098800;18.06423600;2023-08-20T07:58:29;17.70;99.90
7598;DHT22;3840;59.32098800;18.06423600;2023-08-20T08:00:55;17.70;99.90
7598;DHT22;3840;59.32098800;18.06423600;2023-08-20T08:03:21;17.50;99.90
7598;DHT22;3840;59.32098800;18.06423600;2023-08-20T08:05:48;17.50;99.90
7598;DHT22;3840;59.32098800;18.06423600;2023-08-20T08:08:15;17.60;99.90
7598;DHT22;3840;59.32098800;18.06423600;2023-08-20T08:10:42;17.70;99.90
7598;DHT22;3840;59.32098800;18.06423600;2023-08-20T08:13:12;17.70;99.90
7598;DHT22;3840;59.32098800;18.06423600;2023-08-20T08:15:38;17.70;99.90
7598;DHT22;3840;59.32098800;18.06423600;2023-08-20T08:18:04;17.70;99.90
7598;DHT22;3840;59.32098800;18.06423600;2023-08-20T08:20:30;17.80;99.90
7598;DHT22;3840;59.32098800;18.06423600;2023-08-20T08:22:56;17.90;99.90
7598;DHT22;3840;59.32098800;18.06423600;2023-08-20T08:25:23;17.80;99.90
7598;DHT22;3840;59.32098800;18.06423600;2023-08-20T08:27:50;17.80;99.90
7598;DHT22;3840;59.32098800;18.06423600;2023-08-20T08:30:17;17.70;99.90
7598;DHT22;3840;59.32098800;18.06423600;2023-08-20T08:32:43;17.70;99.90
7598;DHT22;3840;59.32098800;18.06423600;2023-08-20T08:35:09;17.70;99.90
7598;DHT22;3840;59.32098800;18.06423600;2023-08-20T08:37:35;17.80;99.90
7598;DHT22;3840;59.32098800;18.06423600;2023-08-20T08:40:02;17.90;99.90
7598;DHT22;3840;59.32098800;18.06423600;2023-08-20T08:42:32;17.90;99.90
7598;DHT22;3840;59.32098800;18.06423600;2023-08-20T08:44:59;17.90;99.90
7598;DHT22;3840;59.32098800;18.06423600;2023-08-20T08:47:25;18.00;99.90
7598;DHT22;3840;59.32098800;18.06423600;2023-08-20T08:49:56;18.10;99.90
7598;DHT22;3840;59.32098800;18.06423600;2023-08-20T08:52:23;18.20;99.90
7598;DHT22;3840;59.32098800;18.06423600;2023-08-20T08:54:49;18.20;99.90
7598;DHT22;3840;59.32098800;18.06423600;2023-08-20T08:57:16;18.20;99.90
7598;DHT22;3840;59.32098800;18.06423600;2023-08-20T08:59:42;18.30;99.90
7598;DHT22;3840;59.32098800;18.06423600;2023-08-20T09:02:10;18.40;99.90
7598;DHT22;3840;59.32098800;18.06423600;2023-08-20T09:04:42;18.50;99.90
7598;DHT22;3840;59.32098800;18.06423600;2023-08-20T09:07:12;18.50;99.90
7598;DHT22;3840;59.32098800;18.06423600;2023-08-20T09:09:43;18.60;99.90
7598;DHT22;3840;59.32098800;18.06423600;2023-08-20T09:12:17;18.70;99.90
7598;DHT22;3840;59.32098800;18.06423600;2023-08-20T09:14:50;18.70;99.90
7598;DHT22;3840;59.32098800;18.06423600;2023-08-20T09:17:16;18.70;99.90
7598;DHT22;3840;59.32098800;18.06423600;2023-08-20T09:19:44;18.80;99.90
7598;DHT22;3840;59.32098800;18.06423600;2023-08-20T09:22:14;18.90;99.90
7598;DHT22;3840;59.32098800;18.06423600;2023-08-20T09:24:51;18.90;99.90
7598;DHT22;3840;59.32098800;18.06423600;2023-08-20T09:27:17;19.00;99.90
7598;DHT22;3840;59.32098800;18.06423600;2023-08-20T09:29:56;19.00;99.90
7598;DHT22;3840;59.32098800;18.06423600;2023-08-20T09:32:27;19.00;99.90
7598;DHT22;3840;59.32098800;18.06423600;2023-08-20T09:34:55;19.30;99.90
7598;DHT22;3840;59.32098800;18.06423600;2023-08-20T09:37:24;19.40;99.90
7598;DHT22;3840;59.32098800;18.06423600;2023-08-20T09:39:50;19.40;99.90
7598;DHT22;3840;59.32098800;18.06423600;2023-08-20T09:42:16;19.40;99.90
7598;DHT22;3840;59.32098800;18.06423600;2023-08-20T09:44:43;19.50;99.90
7598;DHT22;3840;59.32098800;18.06423600;2023-08-20T09:47:13;19.50;99.90
7598;DHT22;3840;59.32098800;18.06423600;2023-08-20T09:49:43;19.50;99.90
7598;DHT22;3840;59.32098800;18.06423600;2023-08-20T09:52:12;19.50;99.90
7598;DHT22;3840;59.32098800;18.06423600;2023-08-20T09:55:00;19.50;99.90
7598;DHT22;3840;59.32098800;18.06423600;2023-08-20T09:57:36;19.50;99.90
7598;DHT22;3840;59.32098800;18.06423600;2023-08-20T10:00:03;19.60;99.90
7598;DHT22;3840;59.32098800;18.06423600;2023-08-20T10:02:32;19.50;99.90
7598;DHT22;3840;59.32098800;18.06423600;2023-08-20T10:04:59;19.40;99.90
7598;DHT22;3840;59.32098800;18.06423600;2023-08-20T10:07:29;19.40;99.90
7598;DHT22;3840;59.32098800;18.06423600;2023-08-20T10:10:03;19.60;99.90
7598;DHT22;3840;59.32098800;18.06423600;2023-08-20T10:12:30;19.50;99.90
7598;DHT22;3840;59.32098800;18.06423600;2023-08-20T10:14:58;19.60;99.90
7598;DHT22;3840;59.32098800;18.06423600;2023-08-20T10:17:24;19.80;99.90
7598;DHT22;3840;59.32098800;18.06423600;2023-08-20T10:19:53;19.90;99.90
7598;DHT22;3840;59.32098800;18.06423600;2023-08-20T10:22:19;20.00;99.90
7598;DHT22;3840;59.32098800;18.06423600;2023-08-20T10:24:50;20.20;99.90
7598;DHT22;3840;59.32098800;18.06423600;2023-08-20T10:27:34;20.10;99.90
7598;DHT22;3840;59.32098800;18.06423600;2023-08-20T10:30:16;20.10;99.90
7598;DHT22;3840;59.32098800;18.06423600;2023-08-20T10:35:15;20.10;99.90
7598;DHT22;3840;59.32098800;18.06423600;2023-08-20T10:38:04;20.00;99.90
7598;DHT22;3840;59.32098800;18.06423600;2023-08-20T10:40:54;19.90;99.90
7598;DHT22;3840;59.32098800;18.06423600;2023-08-20T10:43:33;19.80;99.90
7598;DHT22;3840;59.32098800;18.06423600;2023-08-20T10:46:20;19.80;99.90
7598;DHT22;3840;59.32098800;18.06423600;2023-08-20T10:48:51;19.70;99.90
7598;DHT22;3840;59.32098800;18.06423600;2023-08-20T10:51:35;19.80;99.90
7598;DHT22;3840;59.32098800;18.06423600;2023-08-20T10:59:27;19.60;99.90
7598;DHT22;3840;59.32098800;18.06423600;2023-08-20T11:01:55;19.60;99.90
7598;DHT22;3840;59.32098800;18.06423600;2023-08-20T11:04:30;19.70;99.90
7598;DHT22;3840;59.32098800;18.06423600;2023-08-20T11:06:58;19.80;99.90
7598;DHT22;3840;59.32098800;18.06423600;2023-08-20T11:09:26;19.80;99.90
7598;DHT22;3840;59.32098800;18.06423600;2023-08-20T11:11:52;19.90;99.90
7598;DHT22;3840;59.32098800;18.06423600;2023-08-20T11:14:20;19.80;99.90
7598;DHT22;3840;59.32098800;18.06423600;2023-08-20T11:16:47;19.80;99.90
7598;DHT22;3840;59.32098800;18.06423600;2023-08-20T11:19:15;19.80;99.90
7598;DHT22;3840;59.32098800;18.06423600;2023-08-20T11:21:44;19.90;99.90
7598;DHT22;3840;59.32098800;18.06423600;2023-08-20T11:24:10;19.80;99.90
7598;DHT22;3840;59.32098800;18.06423600;2023-08-20T11:26:40;19.80;99.90
7598;DHT22;3840;59.32098800;18.06423600;2023-08-20T11:29:07;19.70;99.90
7598;DHT22;3840;59.32098800;18.06423600;2023-08-20T11:31:33;19.70;99.90
7598;DHT22;3840;59.32098800;18.06423600;2023-08-20T11:34:03;19.70;99.90
7598;DHT22;3840;59.32098800;18.06423600;2023-08-20T11:36:29;19.70;99.90
7598;DHT22;3840;59.32098800;18.06423600;2023-08-20T11:38:55;19.80;99.90
7598;DHT22;3840;59.32098800;18.06423600;2023-08-20T11:41:22;19.80;99.90
7598;DHT22;3840;59.32098800;18.06423600;2023-08-20T11:43:48;19.80;99.90
7598;DHT22;3840;59.32098800;18.06423600;2023-08-20T11:46:15;19.80;99.90
7598;DHT22;3840;59.32098800;18.06423600;2023-08-20T11:51:36;19.90;99.90
7598;DHT22;3840;59.32098800;18.06423600;2023-08-20T11:54:06;20.00;99.90
7598;DHT22;3840;59.32098800;18.06423600;2023-08-20T11:56:34;20.10;99.90
7598;DHT22;3840;59.32098800;18.06423600;2023-08-20T11:59:01;20.20;99.90
7598;DHT22;3840;59.32098800;18.06423600;2023-08-20T12:01:33;20.30;99.90
7598;DHT22;3840;59.32098800;18.06423600;2023-08-20T12:04:07;20.30;99.90
7598;DHT22;3840;59.32098800;18.06423600;2023-08-20T12:06:34;20.20;99.90
7598;DHT22;3840;59.32098800;18.06423600;2023-08-20T12:09:21;20.30;99.90
7598;DHT22;3840;59.32098800;18.06423600;2023-08-20T12:11:54;20.30;99.90
7598;DHT22;3840;59.32098800;18.06423600;2023-08-20T12:14:25;20.30;99.90
7598;DHT22;3840;59.32098800;18.06423600;2023-08-20T12:16:55;20.30;99.90
7598;DHT22;3840;59.32098800;18.06423600;2023-08-20T12:19:21;20.30;99.90
7598;DHT22;3840;59.32098800;18.06423600;2023-08-20T12:21:48;20.30;99.90
7598;DHT22;3840;59.32098800;18.06423600;2023-08-20T12:24:14;20.20;99.90
7598;DHT22;3840;59.32098800;18.06423600;2023-08-20T12:26:40;20.10;99.90
7598;DHT22;3840;59.32098800;18.06423600;2023-08-20T12:29:07;20.00;99.90
7598;DHT22;3840;59.32098800;18.06423600;2023-08-20T12:31:33;19.90;99.90
7598;DHT22;3840;59.32098800;18.06423600;2023-08-20T12:33:59;20.00;99.90
7598;DHT22;3840;59.32098800;18.06423600;2023-08-20T12:36:25;19.90;99.90
7598;DHT22;3840;59.32098800;18.06423600;2023-08-20T12:38:51;19.80;99.90
7598;DHT22;3840;59.32098800;18.06423600;2023-08-20T12:41:18;19.80;99.90
7598;DHT22;3840;59.32098800;18.06423600;2023-08-20T12:43:46;19.70;99.90
7598;DHT22;3840;59.32098800;18.06423600;2023-08-20T12:46:11;19.70;99.90
7598;DHT22;3840;59.32098800;18.06423600;2023-08-20T12:48:39;19.80;99.90
7598;DHT22;3840;59.32098800;18.06423600;2023-08-20T12:51:07;19.80;99.90
7598;DHT22;3840;59.32098800;18.06423600;2023-08-20T12:53:33;19.60;99.90
7598;DHT22;3840;59.32098800;18.06423600;2023-08-20T12:55:59;19.60;99.90
7598;DHT22;3840;59.32098800;18.06423600;2023-08-20T12:58:25;19.60;99.90
7598;DHT22;3840;59.32098800;18.06423600;2023-08-20T13:00:51;19.50;99.90
7598;DHT22;3840;59.32098800;18.06423600;2023-08-20T13:03:18;19.50;99.90
7598;DHT22;3840;59.32098800;18.06423600;2023-08-20T13:05:44;19.40;99.90
7598;DHT22;3840;59.32098800;18.06423600;2023-08-20T13:08:10;19.40;99.90
7598;DHT22;3840;59.32098800;18.06423600;2023-08-20T13:10:41;19.40;99.90
7598;DHT22;3840;59.32098800;18.06423600;2023-08-20T13:13:10;19.50;99.90
7598;DHT22;3840;59.32098800;18.06423600;2023-08-20T13:15:36;19.50;99.90
7598;DHT22;3840;59.32098800;18.06423600;2023-08-20T13:18:03;19.40;99.90
7598;DHT22;3840;59.32098800;18.06423600;2023-08-20T13:20:30;19.40;99.90
7598;DHT22;3840;59.32098800;18.06423600;2023-08-20T13:22:55;19.40;99.90
7598;DHT22;3840;59.32098800;18.06423600;2023-08-20T13:25:21;19.40;99.90
7598;DHT22;3840;59.32098800;18.06423600;2023-08-20T13:27:47;19.40;99.90
7598;DHT22;3840;59.32098800;18.06423600;2023-08-20T13:30:13;19.40;99.90
7598;DHT22;3840;59.32098800;18.06423600;2023-08-20T13:32:39;19.40;99.90
7598;DHT22;3840;59.32098800;18.06423600;2023-08-20T13:35:05;19.30;99.90
7598;DHT22;3840;59.32098800;18.06423600;2023-08-20T13:37:31;19.30;99.90
7598;DHT22;3840;59.32098800;18.06423600;2023-08-20T13:39:58;19.10;99.90
7598;DHT22;3840;59.32098800;18.06423600;2023-08-20T13:42:24;19.10;99.90
7598;DHT22;3840;59.32098800;18.06423600;2023-08-20T13:44:50;19.10;99.90
7598;DHT22;3840;59.32098800;18.06423600;2023-08-20T13:47:15;19.00;99.90
7598;DHT22;3840;59.32098800;18.06423600;2023-08-20T13:49:41;19.00;99.90
7598;DHT22;3840;59.32098800;18.06423600;2023-08-20T13:52:09;18.90;99.90
7598;DHT22;3840;59.32098800;18.06423600;2023-08-20T13:54:36;18.80;99.90
7598;DHT22;3840;59.32098800;18.06423600;2023-08-20T13:57:03;18.90;99.90
7598;DHT22;3840;59.32098800;18.06423600;2023-08-20T13:59:29;18.70;99.90